sensor_id;sensor_type;location;lat;lon;timestamp;P1;durP1;ratioP1;P2;durP2;ratioP2
78873;SDS011;68250;43.514;1.494;2023-09-18T00:01:26;15.73;;;5.17;;
78873;SDS011;68250;43.514;1.494;2023-09-18T00:03:51;18.33;;;4.97;;
78873;SDS011;68250;43.514;1.494;2023-09-18T00:06:17;16.10;;;4.47;;
78873;SDS011;68250;43.514;1.494;2023-09-18T00:08:42;17.48;;;5.10;;
78873;SDS011;68250;43.514;1.494;2023-09-18T00:11:08;13.00;;;4.53;;
78873;SDS011;68250;43.514;1.494;2023-09-18T00:13:34;15.82;;;5.47;;
78873;SDS011;68250;43.514;1.494;2023-09-18T00:16:00;14.20;;;4.77;;
78873;SDS011;68250;43.514;1.494;2023-09-18T00:18:26;14.52;;;4.95;;
78873;SDS011;68250;43.514;1.494;2023-09-18T00:20:51;14.40;;;4.90;;
78873;SDS011;68250;43.514;1.494;2023-09-18T00:23:17;16.37;;;4.70;;
78873;SDS011;68250;43.514;1.494;2023-09-18T00:25:42;14.70;;;4.68;;
78873;SDS011;68250;43.514;1.494;2023-09-18T00:28:08;21.33;;;5.03;;
78873;SDS011;68250;43.514;1.494;2023-09-18T00:30:33;13.30;;;4.03;;
78873;SDS011;68250;43.514;1.494;2023-09-18T00:32:59;12.97;;;4.37;;
78873;SDS011;68250;43.514;1.494;2023-09-18T00:35:25;16.77;;;4.80;;
78873;SDS011;68250;43.514;1.494;2023-09-18T00:37:50;15.15;;;4.38;;
78873;SDS011;68250;43.514;1.494;2023-09-18T00:40:16;16.30;;;4.90;;
78873;SDS011;68250;43.514;1.494;2023-09-18T00:42:41;14.87;;;4.60;;
78873;SDS011;68250;43.514;1.494;2023-09-18T00:45:07;13.80;;;4.50;;
78873;SDS011;68250;43.514;1.494;2023-09-18T00:47:34;11.68;;;4.13;;
78873;SDS011;68250;43.514;1.494;2023-09-18T00:50:01;12.90;;;3.87;;
78873;SDS011;68250;43.514;1.494;2023-09-18T00:52:28;16.20;;;4.50;;
78873;SDS011;68250;43.514;1.494;2023-09-18T00:54:54;11.77;;;4.50;;
78873;SDS011;68250;43.514;1.494;2023-09-18T00:57:20;19.03;;;5.20;;
78873;SDS011;68250;43.514;1.494;2023-09-18T00:59:46;11.27;;;3.95;;
78873;SDS011;68250;43.514;1.494;2023-09-18T01:02:12;12.33;;;4.23;;
78873;SDS011;68250;43.514;1.494;2023-09-18T01:04:38;12.80;;;4.43;;
78873;SDS011;68250;43.514;1.494;2023-09-18T01:07:09;13.10;;;4.57;;
78873;SDS011;68250;43.514;1.494;2023-09-18T01:09:35;15.03;;;4.50;;
78873;SDS011;68250;43.514;1.494;2023-09-18T01:12:03;13.73;;;3.85;;
78873;SDS011;68250;43.514;1.494;2023-09-18T01:14:33;13.98;;;4.07;;
78873;SDS011;68250;43.514;1.494;2023-09-18T01:17:03;13.17;;;4.17;;
78873;SDS011;68250;43.514;1.494;2023-09-18T01:19:37;13.05;;;3.70;;
78873;SDS011;68250;43.514;1.494;2023-09-18T01:22:06;13.82;;;4.45;;
78873;SDS011;68250;43.514;1.494;2023-09-18T01:24:33;12.40;;;4.28;;
78873;SDS011;68250;43.514;1.494;2023-09-18T01:26:59;15.55;;;3.90;;
78873;SDS011;68250;43.514;1.494;2023-09-18T01:29:25;12.93;;;3.50;;
78873;SDS011;68250;43.514;1.494;2023-09-18T01:31:51;10.17;;;3.73;;
78873;SDS011;68250;43.514;1.494;2023-09-18T01:34:18;10.47;;;3.60;;
78873;SDS011;68250;43.514;1.494;2023-09-18T01:36:48;11.90;;;3.90;;
78873;SDS011;68250;43.514;1.494;2023-09-18T01:39:14;13.50;;;3.78;;
78873;SDS011;68250;43.514;1.494;2023-09-18T01:41:41;10.38;;;3.13;;
78873;SDS011;68250;43.514;1.494;2023-09-18T01:44:06;7.83;;;3.20;;
78873;SDS011;68250;43.514;1.494;2023-09-18T01:46:32;14.00;;;2.90;;
78873;SDS011;68250;43.514;1.494;2023-09-18T01:48:58;8.50;;;2.92;;
78873;SDS011;68250;43.514;1.494;2023-09-18T01:51:24;9.80;;;2.53;;
78873;SDS011;68250;43.514;1.494;2023-09-18T01:53:50;10.43;;;2.80;;
78873;SDS011;68250;43.514;1.494;2023-09-18T01:56:15;10.63;;;2.70;;
78873;SDS011;68250;43.514;1.494;2023-09-18T01:58:41;9.75;;;2.92;;
78873;SDS011;68250;43.514;1.494;2023-09-18T02:01:06;10.47;;;2.70;;
78873;SDS011;68250;43.514;1.494;2023-09-18T02:03:32;11.27;;;3.00;;
78873;SDS011;68250;43.514;1.494;2023-09-18T02:05:57;9.65;;;3.00;;
78873;SDS011;68250;43.514;1.494;2023-09-18T02:08:23;10.37;;;3.50;;
78873;SDS011;68250;43.514;1.494;2023-09-18T02:10:48;11.27;;;3.10;;
78873;SDS011;68250;43.514;1.494;2023-09-18T02:13:14;11.30;;;3.00;;
78873;SDS011;68250;43.514;1.494;2023-09-18T02:15:39;12.13;;;3.00;;
78873;SDS011;68250;43.514;1.494;2023-09-18T02:18:05;9.53;;;3.00;;
78873;SDS011;68250;43.514;1.494;2023-09-18T02:20:30;11.47;;;3.00;;
78873;SDS011;68250;43.514;1.494;2023-09-18T02:22:56;8.60;;;3.00;;
78873;SDS011;68250;43.514;1.494;2023-09-18T02:25:21;10.13;;;3.07;;
78873;SDS011;68250;43.514;1.494;2023-09-18T02:27:47;11.03;;;3.27;;
78873;SDS011;68250;43.514;1.494;2023-09-18T02:30:12;13.15;;;3.17;;
78873;SDS011;68250;43.514;1.494;2023-09-18T02:32:38;9.80;;;3.17;;
78873;SDS011;68250;43.514;1.494;2023-09-18T02:35:04;8.87;;;3.27;;
78873;SDS011;68250;43.514;1.494;2023-09-18T02:37:32;9.63;;;3.00;;
78873;SDS011;68250;43.514;1.494;2023-09-18T02:39:57;13.25;;;3.20;;
78873;SDS011;68250;43.514;1.494;2023-09-18T02:42:23;9.60;;;3.10;;
78873;SDS011;68250;43.514;1.494;2023-09-18T02:44:48;13.83;;;3.10;;
78873;SDS011;68250;43.514;1.494;2023-09-18T02:47:14;9.50;;;3.17;;
78873;SDS011;68250;43.514;1.494;2023-09-18T02:49:39;13.45;;;3.53;;
78873;SDS011;68250;43.514;1.494;2023-09-18T02:52:05;13.60;;;4.20;;
78873;SDS011;68250;43.514;1.494;2023-09-18T02:54:30;10.30;;;3.40;;
78873;SDS011;68250;43.514;1.494;2023-09-18T02:56:56;11.75;;;3.00;;
78873;SDS011;68250;43.514;1.494;2023-09-18T02:59:21;10.27;;;3.00;;
78873;SDS011;68250;43.514;1.494;2023-09-18T03:01:47;8.20;;;2.80;;
78873;SDS011;68250;43.514;1.494;2023-09-18T03:04:12;11.55;;;3.17;;
78873;SDS011;68250;43.514;1.494;2023-09-18T03:06:38;9.77;;;3.30;;
78873;SDS011;68250;43.514;1.494;2023-09-18T03:09:04;10.20;;;3.03;;
78873;SDS011;68250;43.514;1.494;2023-09-18T03:11:30;10.33;;;3.30;;
78873;SDS011;68250;43.514;1.494;2023-09-18T03:13:56;10.70;;;3.35;;
78873;SDS011;68250;43.514;1.494;2023-09-18T03:16:21;11.50;;;3.47;;
78873;SDS011;68250;43.514;1.494;2023-09-18T03:18:47;13.43;;;3.80;;
78873;SDS011;68250;43.514;1.494;2023-09-18T03:21:12;9.17;;;3.43;;
78873;SDS011;68250;43.514;1.494;2023-09-18T03:23:38;12.60;;;3.70;;
78873;SDS011;68250;43.514;1.494;2023-09-18T03:26:03;12.67;;;4.27;;
78873;SDS011;68250;43.514;1.494;2023-09-18T03:28:28;15.30;;;4.90;;
78873;SDS011;68250;43.514;1.494;2023-09-18T03:30:54;16.67;;;5.35;;
78873;SDS011;68250;43.514;1.494;2023-09-18T03:33:20;15.47;;;5.30;;
78873;SDS011;68250;43.514;1.494;2023-09-18T03:35:46;12.77;;;4.97;;
78873;SDS011;68250;43.514;1.494;2023-09-18T03:38:16;12.93;;;4.75;;
78873;SDS011;68250;43.514;1.494;2023-09-18T03:40:42;14.73;;;4.60;;
78873;SDS011;68250;43.514;1.494;2023-09-18T03:43:08;13.63;;;4.20;;
78873;SDS011;68250;43.514;1.494;2023-09-18T03:45:35;10.20;;;4.28;;
78873;SDS011;68250;43.514;1.494;2023-09-18T03:48:00;11.17;;;4.60;;
78873;SDS011;68250;43.514;1.494;2023-09-18T03:50:26;12.55;;;4.47;;
78873;SDS011;68250;43.514;1.494;2023-09-18T03:52:52;12.30;;;4.47;;
78873;SDS011;68250;43.514;1.494;2023-09-18T03:55:17;11.63;;;4.32;;
78873;SDS011;68250;43.514;1.494;2023-09-18T03:57:43;15.77;;;4.90;;
78873;SDS011;68250;43.514;1.494;2023-09-18T04:00:11;11.80;;;4.97;;
78873;SDS011;68250;43.514;1.494;2023-09-18T04:02:37;11.82;;;4.72;;
78873;SDS011;68250;43.514;1.494;2023-09-18T04:05:03;16.53;;;5.00;;
78873;SDS011;68250;43.514;1.494;2023-09-18T04:07:29;16.17;;;5.55;;
78873;SDS011;68250;43.514;1.494;2023-09-18T04:09:56;15.65;;;5.13;;
78873;SDS011;68250;43.514;1.494;2023-09-18T04:12:21;12.10;;;4.80;;
78873;SDS011;68250;43.514;1.494;2023-09-18T04:14:47;18.80;;;5.17;;
78873;SDS011;68250;43.514;1.494;2023-09-18T04:17:12;18.50;;;5.47;;
78873;SDS011;68250;43.514;1.494;2023-09-18T04:19:38;16.33;;;5.23;;
78873;SDS011;68250;43.514;1.494;2023-09-18T04:22:04;12.93;;;5.57;;
78873;SDS011;68250;43.514;1.494;2023-09-18T04:24:29;13.73;;;5.47;;
78873;SDS011;68250;43.514;1.494;2023-09-18T04:26:55;14.03;;;5.80;;
78873;SDS011;68250;43.514;1.494;2023-09-18T04:29:20;16.15;;;5.80;;
78873;SDS011;68250;43.514;1.494;2023-09-18T04:31:46;13.87;;;5.60;;
78873;SDS011;68250;43.514;1.494;2023-09-18T04:34:12;13.70;;;5.55;;
78873;SDS011;68250;43.514;1.494;2023-09-18T04:36:37;14.20;;;6.17;;
78873;SDS011;68250;43.514;1.494;2023-09-18T04:39:05;16.77;;;6.70;;
78873;SDS011;68250;43.514;1.494;2023-09-18T04:41:31;17.45;;;6.53;;
78873;SDS011;68250;43.514;1.494;2023-09-18T04:43:57;17.60;;;6.18;;
78873;SDS011;68250;43.514;1.494;2023-09-18T04:46:23;14.97;;;6.13;;
78873;SDS011;68250;43.514;1.494;2023-09-18T04:48:49;16.63;;;6.25;;
78873;SDS011;68250;43.514;1.494;2023-09-18T04:51:15;18.40;;;6.07;;
78873;SDS011;68250;43.514;1.494;2023-09-18T04:53:41;14.87;;;6.17;;
78873;SDS011;68250;43.514;1.494;2023-09-18T04:56:07;16.42;;;6.00;;
78873;SDS011;68250;43.514;1.494;2023-09-18T04:58:35;16.92;;;6.38;;
78873;SDS011;68250;43.514;1.494;2023-09-18T05:01:02;14.25;;;6.20;;
78873;SDS011;68250;43.514;1.494;2023-09-18T05:03:30;16.83;;;6.37;;
78873;SDS011;68250;43.514;1.494;2023-09-18T05:05:58;15.25;;;6.05;;
78873;SDS011;68250;43.514;1.494;2023-09-18T05:08:23;15.93;;;6.03;;
78873;SDS011;68250;43.514;1.494;2023-09-18T05:10:49;15.60;;;5.70;;
78873;SDS011;68250;43.514;1.494;2023-09-18T05:13:15;15.32;;;5.57;;
78873;SDS011;68250;43.514;1.494;2023-09-18T05:15:41;16.00;;;6.17;;
78873;SDS011;68250;43.514;1.494;2023-09-18T05:18:06;16.87;;;5.93;;
78873;SDS011;68250;43.514;1.494;2023-09-18T05:20:32;15.65;;;6.32;;
78873;SDS011;68250;43.514;1.494;2023-09-18T05:22:59;15.55;;;6.07;;
78873;SDS011;68250;43.514;1.494;2023-09-18T05:25:25;14.77;;;5.57;;
78873;SDS011;68250;43.514;1.494;2023-09-18T05:27:53;19.08;;;6.07;;
78873;SDS011;68250;43.514;1.494;2023-09-18T05:30:23;16.00;;;6.13;;
78873;SDS011;68250;43.514;1.494;2023-09-18T05:32:50;18.17;;;6.80;;
78873;SDS011;68250;43.514;1.494;2023-09-18T05:35:16;21.97;;;6.77;;
78873;SDS011;68250;43.514;1.494;2023-09-18T05:37:42;20.60;;;7.22;;
78873;SDS011;68250;43.514;1.494;2023-09-18T05:40:08;23.05;;;7.97;;
78873;SDS011;68250;43.514;1.494;2023-09-18T05:42:38;21.17;;;7.23;;
78873;SDS011;68250;43.514;1.494;2023-09-18T05:45:08;23.35;;;8.27;;
78873;SDS011;68250;43.514;1.494;2023-09-18T05:47:33;25.92;;;8.52;;
78873;SDS011;68250;43.514;1.494;2023-09-18T05:50:01;23.92;;;8.43;;
78873;SDS011;68250;43.514;1.494;2023-09-18T05:52:29;28.37;;;8.30;;
78873;SDS011;68250;43.514;1.494;2023-09-18T05:54:54;23.33;;;8.02;;
78873;SDS011;68250;43.514;1.494;2023-09-18T05:57:19;29.83;;;8.70;;
78873;SDS011;68250;43.514;1.494;2023-09-18T05:59:45;29.20;;;8.68;;
78873;SDS011;68250;43.514;1.494;2023-09-18T06:02:11;27.13;;;8.60;;
78873;SDS011;68250;43.514;1.494;2023-09-18T06:04:37;29.75;;;9.38;;
78873;SDS011;68250;43.514;1.494;2023-09-18T06:07:03;27.97;;;8.97;;
78873;SDS011;68250;43.514;1.494;2023-09-18T06:09:29;35.95;;;9.90;;
78873;SDS011;68250;43.514;1.494;2023-09-18T06:11:54;31.10;;;9.00;;
78873;SDS011;68250;43.514;1.494;2023-09-18T06:14:20;29.63;;;9.73;;
78873;SDS011;68250;43.514;1.494;2023-09-18T06:16:45;31.27;;;9.85;;
78873;SDS011;68250;43.514;1.494;2023-09-18T06:19:10;28.27;;;9.03;;
78873;SDS011;68250;43.514;1.494;2023-09-18T06:21:36;27.93;;;9.80;;
78873;SDS011;68250;43.514;1.494;2023-09-18T06:24:01;27.73;;;9.10;;
78873;SDS011;68250;43.514;1.494;2023-09-18T06:26:27;28.30;;;9.48;;
78873;SDS011;68250;43.514;1.494;2023-09-18T06:28:52;29.87;;;9.50;;
78873;SDS011;68250;43.514;1.494;2023-09-18T06:31:20;27.35;;;9.02;;
78873;SDS011;68250;43.514;1.494;2023-09-18T06:33:45;28.58;;;9.30;;
78873;SDS011;68250;43.514;1.494;2023-09-18T06:36:11;29.17;;;9.30;;
78873;SDS011;68250;43.514;1.494;2023-09-18T06:38:36;27.53;;;9.30;;
78873;SDS011;68250;43.514;1.494;2023-09-18T06:41:02;38.30;;;9.50;;
78873;SDS011;68250;43.514;1.494;2023-09-18T06:43:28;38.13;;;10.60;;
78873;SDS011;68250;43.514;1.494;2023-09-18T06:45:53;27.60;;;10.20;;
78873;SDS011;68250;43.514;1.494;2023-09-18T06:48:19;34.92;;;11.68;;
78873;SDS011;68250;43.514;1.494;2023-09-18T06:50:44;31.47;;;11.00;;
78873;SDS011;68250;43.514;1.494;2023-09-18T06:53:10;30.67;;;11.53;;
78873;SDS011;68250;43.514;1.494;2023-09-18T06:55:36;32.70;;;11.20;;
78873;SDS011;68250;43.514;1.494;2023-09-18T06:58:02;31.87;;;11.17;;
78873;SDS011;68250;43.514;1.494;2023-09-18T07:00:27;32.00;;;11.77;;
78873;SDS011;68250;43.514;1.494;2023-09-18T07:02:53;33.13;;;11.73;;
78873;SDS011;68250;43.514;1.494;2023-09-18T07:05:18;38.40;;;11.77;;
78873;SDS011;68250;43.514;1.494;2023-09-18T07:07:44;34.20;;;12.32;;
78873;SDS011;68250;43.514;1.494;2023-09-18T07:10:09;30.93;;;11.53;;
78873;SDS011;68250;43.514;1.494;2023-09-18T07:12:35;30.70;;;11.00;;
78873;SDS011;68250;43.514;1.494;2023-09-18T07:15:02;29.65;;;10.82;;
78873;SDS011;68250;43.514;1.494;2023-09-18T07:17:28;29.05;;;11.27;;
78873;SDS011;68250;43.514;1.494;2023-09-18T07:19:54;26.37;;;10.63;;
78873;SDS011;68250;43.514;1.494;2023-09-18T07:22:19;31.30;;;11.40;;
78873;SDS011;68250;43.514;1.494;2023-09-18T07:24:45;25.83;;;10.87;;
78873;SDS011;68250;43.514;1.494;2023-09-18T07:27:11;31.77;;;10.85;;
78873;SDS011;68250;43.514;1.494;2023-09-18T07:29:37;24.37;;;9.87;;
78873;SDS011;68250;43.514;1.494;2023-09-18T07:32:03;24.83;;;9.93;;
78873;SDS011;68250;43.514;1.494;2023-09-18T07:34:28;21.53;;;8.23;;
78873;SDS011;68250;43.514;1.494;2023-09-18T07:36:54;21.50;;;8.00;;
78873;SDS011;68250;43.514;1.494;2023-09-18T07:39:20;22.45;;;8.20;;
78873;SDS011;68250;43.514;1.494;2023-09-18T07:41:46;19.90;;;7.40;;
78873;SDS011;68250;43.514;1.494;2023-09-18T07:44:19;17.40;;;6.90;;
78873;SDS011;68250;43.514;1.494;2023-09-18T07:46:45;21.00;;;7.27;;
78873;SDS011;68250;43.514;1.494;2023-09-18T07:49:11;19.95;;;7.30;;
78873;SDS011;68250;43.514;1.494;2023-09-18T07:51:37;19.92;;;7.35;;
78873;SDS011;68250;43.514;1.494;2023-09-18T07:54:03;17.77;;;7.10;;
78873;SDS011;68250;43.514;1.494;2023-09-18T07:56:28;24.17;;;7.90;;
78873;SDS011;68250;43.514;1.494;2023-09-18T07:58:56;19.40;;;8.00;;
78873;SDS011;68250;43.514;1.494;2023-09-18T08:01:21;21.83;;;8.60;;
78873;SDS011;68250;43.514;1.494;2023-09-18T08:03:48;22.73;;;8.15;;
78873;SDS011;68250;43.514;1.494;2023-09-18T08:06:14;21.98;;;8.25;;
78873;SDS011;68250;43.514;1.494;2023-09-18T08:08:43;22.20;;;7.20;;
78873;SDS011;68250;43.514;1.494;2023-09-18T08:11:09;21.53;;;7.37;;
78873;SDS011;68250;43.514;1.494;2023-09-18T08:13:34;20.67;;;7.65;;
78873;SDS011;68250;43.514;1.494;2023-09-18T08:16:00;19.67;;;7.10;;
78873;SDS011;68250;43.514;1.494;2023-09-18T08:18:26;20.23;;;8.00;;
78873;SDS011;68250;43.514;1.494;2023-09-18T08:20:52;18.00;;;7.13;;
78873;SDS011;68250;43.514;1.494;2023-09-18T08:23:19;18.43;;;7.13;;
78873;SDS011;68250;43.514;1.494;2023-09-18T08:25:45;16.23;;;7.35;;
78873;SDS011;68250;43.514;1.494;2023-09-18T08:28:12;23.57;;;7.87;;
78873;SDS011;68250;43.514;1.494;2023-09-18T08:30:39;24.77;;;7.25;;
78873;SDS011;68250;43.514;1.494;2023-09-18T08:33:05;15.77;;;7.60;;
78873;SDS011;68250;43.514;1.494;2023-09-18T08:35:31;20.53;;;7.13;;
78873;SDS011;68250;43.514;1.494;2023-09-18T08:37:57;18.73;;;7.55;;
78873;SDS011;68250;43.514;1.494;2023-09-18T08:40:23;19.90;;;7.07;;
78873;SDS011;68250;43.514;1.494;2023-09-18T08:42:49;20.27;;;6.45;;
78873;SDS011;68250;43.514;1.494;2023-09-18T08:45:27;18.75;;;6.63;;
78873;SDS011;68250;43.514;1.494;2023-09-18T08:47:58;16.70;;;6.38;;
78873;SDS011;68250;43.514;1.494;2023-09-18T08:50:24;23.93;;;6.07;;
78873;SDS011;68250;43.514;1.494;2023-09-18T08:52:50;14.70;;;5.20;;
78873;SDS011;68250;43.514;1.494;2023-09-18T08:55:16;14.57;;;5.13;;
78873;SDS011;68250;43.514;1.494;2023-09-18T08:57:42;12.57;;;5.20;;
78873;SDS011;68250;43.514;1.494;2023-09-18T09:00:08;10.05;;;4.30;;
78873;SDS011;68250;43.514;1.494;2023-09-18T09:02:36;12.80;;;4.13;;
78873;SDS011;68250;43.514;1.494;2023-09-18T09:05:02;12.23;;;4.25;;
78873;SDS011;68250;43.514;1.494;2023-09-18T09:07:28;11.87;;;4.87;;
78873;SDS011;68250;43.514;1.494;2023-09-18T09:09:56;17.83;;;4.75;;
78873;SDS011;68250;43.514;1.494;2023-09-18T09:15:24;21.35;;;5.05;;
78873;SDS011;68250;43.514;1.494;2023-09-18T09:18:04;11.30;;;4.55;;
78873;SDS011;68250;43.514;1.494;2023-09-18T09:20:30;8.88;;;3.70;;
78873;SDS011;68250;43.514;1.494;2023-09-18T09:23:00;9.83;;;3.70;;
78873;SDS011;68250;43.514;1.494;2023-09-18T09:25:27;11.18;;;4.05;;
78873;SDS011;68250;43.514;1.494;2023-09-18T09:27:56;11.43;;;4.03;;
78873;SDS011;68250;43.514;1.494;2023-09-18T09:30:23;10.32;;;3.60;;
78873;SDS011;68250;43.514;1.494;2023-09-18T09:32:50;13.52;;;4.15;;
78873;SDS011;68250;43.514;1.494;2023-09-18T09:35:28;8.70;;;4.10;;
78873;SDS011;68250;43.514;1.494;2023-09-18T09:37:56;9.32;;;3.60;;
78873;SDS011;68250;43.514;1.494;2023-09-18T09:40:26;11.95;;;3.83;;
78873;SDS011;68250;43.514;1.494;2023-09-18T09:42:52;17.40;;;4.00;;
78873;SDS011;68250;43.514;1.494;2023-09-18T09:45:22;9.73;;;3.40;;
78873;SDS011;68250;43.514;1.494;2023-09-18T09:47:48;10.53;;;3.77;;
78873;SDS011;68250;43.514;1.494;2023-09-18T09:50:19;14.43;;;4.25;;
78873;SDS011;68250;43.514;1.494;2023-09-18T09:52:51;10.57;;;4.30;;
78873;SDS011;68250;43.514;1.494;2023-09-18T09:57:47;13.00;;;3.80;;
78873;SDS011;68250;43.514;1.494;2023-09-18T10:00:13;10.85;;;3.42;;
78873;SDS011;68250;43.514;1.494;2023-09-18T10:02:56;9.82;;;3.72;;
78873;SDS011;68250;43.514;1.494;2023-09-18T10:05:27;10.27;;;3.80;;
78873;SDS011;68250;43.514;1.494;2023-09-18T10:07:59;8.75;;;3.38;;
78873;SDS011;68250;43.514;1.494;2023-09-18T10:10:29;9.45;;;3.38;;
78873;SDS011;68250;43.514;1.494;2023-09-18T10:12:59;7.28;;;3.10;;
78873;SDS011;68250;43.514;1.494;2023-09-18T10:15:27;7.80;;;3.10;;
78873;SDS011;68250;43.514;1.494;2023-09-18T10:17:56;7.93;;;2.83;;
78873;SDS011;68250;43.514;1.494;2023-09-18T10:20:24;7.55;;;3.20;;
78873;SDS011;68250;43.514;1.494;2023-09-18T10:22:56;6.05;;;3.15;;
78873;SDS011;68250;43.514;1.494;2023-09-18T10:25:27;9.02;;;2.92;;
78873;SDS011;68250;43.514;1.494;2023-09-18T10:27:54;7.82;;;3.20;;
78873;SDS011;68250;43.514;1.494;2023-09-18T10:30:23;9.27;;;3.13;;
78873;SDS011;68250;43.514;1.494;2023-09-18T10:32:50;9.93;;;3.40;;
78873;SDS011;68250;43.514;1.494;2023-09-18T10:35:16;10.68;;;3.47;;
78873;SDS011;68250;43.514;1.494;2023-09-18T10:37:43;10.43;;;3.60;;
78873;SDS011;68250;43.514;1.494;2023-09-18T10:40:09;9.17;;;3.00;;
78873;SDS011;68250;43.514;1.494;2023-09-18T10:42:35;9.07;;;3.50;;
78873;SDS011;68250;43.514;1.494;2023-09-18T10:45:03;9.38;;;3.00;;
78873;SDS011;68250;43.514;1.494;2023-09-18T10:47:29;8.10;;;3.28;;
78873;SDS011;68250;43.514;1.494;2023-09-18T10:49:56;11.13;;;3.42;;
78873;SDS011;68250;43.514;1.494;2023-09-18T10:52:21;9.73;;;3.87;;
78873;SDS011;68250;43.514;1.494;2023-09-18T10:54:47;7.67;;;3.30;;
78873;SDS011;68250;43.514;1.494;2023-09-18T10:57:12;8.73;;;3.80;;
78873;SDS011;68250;43.514;1.494;2023-09-18T10:59:44;6.40;;;2.97;;
78873;SDS011;68250;43.514;1.494;2023-09-18T11:02:13;9.50;;;3.47;;
78873;SDS011;68250;43.514;1.494;2023-09-18T11:04:41;7.40;;;3.10;;
78873;SDS011;68250;43.514;1.494;2023-09-18T11:07:07;9.20;;;3.30;;
78873;SDS011;68250;43.514;1.494;2023-09-18T11:09:41;9.57;;;3.97;;
78873;SDS011;68250;43.514;1.494;2023-09-18T11:12:09;11.63;;;3.63;;
78873;SDS011;68250;43.514;1.494;2023-09-18T11:14:45;8.25;;;3.70;;
78873;SDS011;68250;43.514;1.494;2023-09-18T11:20:41;8.03;;;3.30;;
78873;SDS011;68250;43.514;1.494;2023-09-18T11:23:15;11.40;;;3.75;;
78873;SDS011;68250;43.514;1.494;2023-09-18T11:25:42;6.27;;;3.23;;
78873;SDS011;68250;43.514;1.494;2023-09-18T11:57:54;5.77;;;2.43;;
78873;SDS011;68250;43.514;1.494;2023-09-18T12:24:03;7.82;;;2.20;;
78873;SDS011;68250;43.514;1.494;2023-09-18T12:26:30;6.25;;;2.50;;
78873;SDS011;68250;43.514;1.494;2023-09-18T12:28:56;5.17;;;2.33;;
78873;SDS011;68250;43.514;1.494;2023-09-18T12:35:13;6.40;;;2.20;;
78873;SDS011;68250;43.514;1.494;2023-09-18T12:41:25;7.65;;;2.90;;
78873;SDS011;68250;43.514;1.494;2023-09-18T12:47:15;6.15;;;2.55;;
78873;SDS011;68250;43.514;1.494;2023-09-18T13:54:37;5.55;;;1.80;;
78873;SDS011;68250;43.514;1.494;2023-09-18T14:00:46;8.90;;;1.75;;
78873;SDS011;68250;43.514;1.494;2023-09-18T14:23:48;4.60;;;1.47;;
78873;SDS011;68250;43.514;1.494;2023-09-18T14:42:18;7.15;;;1.90;;
78873;SDS011;68250;43.514;1.494;2023-09-18T14:44:44;5.57;;;1.80;;
78873;SDS011;68250;43.514;1.494;2023-09-18T15:08:31;4.15;;;0.90;;
78873;SDS011;68250;43.514;1.494;2023-09-18T15:13:59;4.55;;;0.98;;
78873;SDS011;68250;43.514;1.494;2023-09-18T15:17:05;6.43;;;0.95;;
78873;SDS011;68250;43.514;1.494;2023-09-18T15:37:28;4.00;;;1.13;;
78873;SDS011;68250;43.514;1.494;2023-09-18T17:19:27;5.20;;;0.90;;
78873;SDS011;68250;43.514;1.494;2023-09-18T17:52:22;5.13;;;1.00;;
78873;SDS011;68250;43.514;1.494;2023-09-18T18:01:59;6.07;;;1.10;;
78873;SDS011;68250;43.514;1.494;2023-09-18T18:04:46;5.60;;;1.20;;
78873;SDS011;68250;43.514;1.494;2023-09-18T18:10:20;3.80;;;0.82;;
78873;SDS011;68250;43.514;1.494;2023-09-18T18:23:35;4.80;;;1.00;;
78873;SDS011;68250;43.514;1.494;2023-09-18T18:26:21;4.65;;;0.80;;
78873;SDS011;68250;43.514;1.494;2023-09-18T19:09:16;5.68;;;1.02;;
78873;SDS011;68250;43.514;1.494;2023-09-18T19:11:42;8.23;;;1.30;;
78873;SDS011;68250;43.514;1.494;2023-09-18T19:14:08;6.77;;;1.00;;
78873;SDS011;68250;43.514;1.494;2023-09-18T19:16:33;6.40;;;1.20;;
78873;SDS011;68250;43.514;1.494;2023-09-18T19:19:00;4.73;;;1.13;;
78873;SDS011;68250;43.514;1.494;2023-09-18T19:24:48;7.65;;;1.70;;
78873;SDS011;68250;43.514;1.494;2023-09-18T19:30:36;6.40;;;1.38;;
78873;SDS011;68250;43.514;1.494;2023-09-18T19:33:08;6.50;;;1.30;;
78873;SDS011;68250;43.514;1.494;2023-09-18T19:35:35;6.95;;;1.20;;
78873;SDS011;68250;43.514;1.494;2023-09-18T19:38:02;5.88;;;1.30;;
78873;SDS011;68250;43.514;1.494;2023-09-18T19:40:28;5.40;;;1.40;;
78873;SDS011;68250;43.514;1.494;2023-09-18T19:42:56;7.55;;;1.40;;
78873;SDS011;68250;43.514;1.494;2023-09-18T19:45:22;6.47;;;1.00;;
78873;SDS011;68250;43.514;1.494;2023-09-18T19:47:47;7.65;;;1.42;;
78873;SDS011;68250;43.514;1.494;2023-09-18T19:50:13;6.03;;;1.23;;
78873;SDS011;68250;43.514;1.494;2023-09-18T19:52:39;7.03;;;1.30;;
78873;SDS011;68250;43.514;1.494;2023-09-18T19:55:05;6.63;;;1.27;;
78873;SDS011;68250;43.514;1.494;2023-09-18T19:57:31;5.30;;;1.20;;
78873;SDS011;68250;43.514;1.494;2023-09-18T19:59:56;7.18;;;1.20;;
78873;SDS011;68250;43.514;1.494;2023-09-18T20:02:24;6.27;;;1.30;;
78873;SDS011;68250;43.514;1.494;2023-09-18T20:04:51;6.50;;;1.50;;
78873;SDS011;68250;43.514;1.494;2023-09-18T20:07:17;5.90;;;1.25;;
78873;SDS011;68250;43.514;1.494;2023-09-18T20:09:42;6.97;;;1.70;;
78873;SDS011;68250;43.514;1.494;2023-09-18T20:22:24;5.83;;;1.53;;
78873;SDS011;68250;43.514;1.494;2023-09-18T20:24:51;7.00;;;1.70;;
78873;SDS011;68250;43.514;1.494;2023-09-18T20:27:16;8.73;;;1.63;;
78873;SDS011;68250;43.514;1.494;2023-09-18T20:29:42;7.17;;;1.73;;
78873;SDS011;68250;43.514;1.494;2023-09-18T20:32:09;6.53;;;1.70;;
78873;SDS011;68250;43.514;1.494;2023-09-18T20:34:34;5.97;;;1.53;;
78873;SDS011;68250;43.514;1.494;2023-09-18T20:37:00;6.75;;;1.58;;
78873;SDS011;68250;43.514;1.494;2023-09-18T20:39:25;8.77;;;1.63;;
78873;SDS011;68250;43.514;1.494;2023-09-18T20:41:51;7.20;;;1.70;;
78873;SDS011;68250;43.514;1.494;2023-09-18T20:44:17;6.23;;;1.40;;
78873;SDS011;68250;43.514;1.494;2023-09-18T20:46:42;10.57;;;1.70;;
78873;SDS011;68250;43.514;1.494;2023-09-18T20:49:08;4.70;;;1.30;;
78873;SDS011;68250;43.514;1.494;2023-09-18T20:51:34;6.33;;;1.43;;
78873;SDS011;68250;43.514;1.494;2023-09-18T20:54:00;7.03;;;1.48;;
78873;SDS011;68250;43.514;1.494;2023-09-18T20:56:26;7.40;;;1.47;;
78873;SDS011;68250;43.514;1.494;2023-09-18T20:58:55;5.57;;;1.30;;
78873;SDS011;68250;43.514;1.494;2023-09-18T21:01:22;6.57;;;1.55;;
78873;SDS011;68250;43.514;1.494;2023-09-18T21:03:48;7.88;;;1.42;;
78873;SDS011;68250;43.514;1.494;2023-09-18T21:06:13;7.93;;;1.63;;
78873;SDS011;68250;43.514;1.494;2023-09-18T21:08:40;6.88;;;1.45;;
78873;SDS011;68250;43.514;1.494;2023-09-18T21:11:05;5.47;;;1.40;;
78873;SDS011;68250;43.514;1.494;2023-09-18T21:13:31;6.07;;;1.20;;
78873;SDS011;68250;43.514;1.494;2023-09-18T21:15:56;7.13;;;1.60;;
78873;SDS011;68250;43.514;1.494;2023-09-18T21:18:30;6.85;;;1.17;;
78873;SDS011;68250;43.514;1.494;2023-09-18T21:20:56;7.47;;;1.75;;
78873;SDS011;68250;43.514;1.494;2023-09-18T21:23:22;7.03;;;1.55;;
78873;SDS011;68250;43.514;1.494;2023-09-18T21:25:48;6.90;;;1.33;;
78873;SDS011;68250;43.514;1.494;2023-09-18T21:28:15;5.65;;;1.50;;
78873;SDS011;68250;43.514;1.494;2023-09-18T21:30:41;8.00;;;1.23;;
78873;SDS011;68250;43.514;1.494;2023-09-18T21:33:07;7.63;;;1.30;;
78873;SDS011;68250;43.514;1.494;2023-09-18T21:35:32;9.97;;;1.77;;
78873;SDS011;68250;43.514;1.494;2023-09-18T21:37:58;7.65;;;1.58;;
78873;SDS011;68250;43.514;1.494;2023-09-18T21:40:26;7.40;;;1.42;;
78873;SDS011;68250;43.514;1.494;2023-09-18T21:42:52;7.18;;;1.30;;
78873;SDS011;68250;43.514;1.494;2023-09-18T21:45:19;8.07;;;1.30;;